createdAt,value
2022-07-26T00:01:20.335Z,23.60
2022-07-26T00:03:49.194Z,23.60
2022-07-26T00:06:18.984Z,23.50
2022-07-26T00:08:47.468Z,23.40
2022-07-26T00:11:15.650Z,23.30
2022-07-26T00:13:43.621Z,23.30
2022-07-26T00:16:11.976Z,23.20
2022-07-26T00:18:41.318Z,23.20
2022-07-26T00:21:09.569Z,23.10
2022-07-26T00:23:39.709Z,23.00
2022-07-26T00:26:07.691Z,22.80
2022-07-26T00:28:36.362Z,22.80
2022-07-26T00:31:04.618Z,22.80
2022-07-26T00:33:32.916Z,22.70
2022-07-26T00:36:02.249Z,23.00
2022-07-26T00:38:30.139Z,22.60
2022-07-26T00:40:58.537Z,22.60
2022-07-26T00:43:26.513Z,22.50
2022-07-26T00:45:54.746Z,22.70
2022-07-26T00:48:22.833Z,22.40
2022-07-26T00:50:51.737Z,22.30
2022-07-26T00:53:22.421Z,22.30
2022-07-26T00:55:51.022Z,22.20
2022-07-26T00:58:19.441Z,22.20
2022-07-26T01:00:47.652Z,22.20
2022-07-26T01:03:15.595Z,22.30
2022-07-26T01:05:44.017Z,22.30
2022-07-26T01:08:12.067Z,22.30
2022-07-26T01:10:43.695Z,22.30
2022-07-26T01:13:13.122Z,22.30
2022-07-26T01:15:41.128Z,22.30
2022-07-26T01:18:09.080Z,22.30
2022-07-26T01:20:37.243Z,22.30
2022-07-26T01:23:07.037Z,22.20
2022-07-26T01:25:43.371Z,22.20
2022-07-26T01:28:11.946Z,22.10
2022-07-26T01:30:48.998Z,22.10
2022-07-26T01:33:17.124Z,22.10
2022-07-26T01:35:45.232Z,22.00
2022-07-26T01:38:15.420Z,22.00
2022-07-26T01:40:43.350Z,21.90
2022-07-26T01:43:11.399Z,21.90
2022-07-26T01:45:41.402Z,21.90
2022-07-26T01:48:09.556Z,21.90
2022-07-26T01:50:37.894Z,21.90
2022-07-26T01:53:06.127Z,21.80
2022-07-26T01:55:35.847Z,21.80
2022-07-26T01:58:04.590Z,21.70
2022-07-26T02:00:32.889Z,21.70
2022-07-26T02:03:00.918Z,21.60
2022-07-26T02:05:29.168Z,21.50
2022-07-26T02:07:57.293Z,21.50
2022-07-26T02:10:49.701Z,21.40
2022-07-26T02:13:19.434Z,21.30
2022-07-26T02:15:49.839Z,21.20
2022-07-26T02:18:18.227Z,21.20
2022-07-26T02:20:46.575Z,21.10
2022-07-26T02:23:15.224Z,21.00
2022-07-26T02:25:43.572Z,21.00
2022-07-26T02:28:12.035Z,20.90
2022-07-26T02:30:41.949Z,20.90
2022-07-26T02:33:12.022Z,20.80
2022-07-26T02:35:40.145Z,20.70
2022-07-26T02:38:10.232Z,21.10
2022-07-26T02:40:40.381Z,20.50
2022-07-26T02:43:12.449Z,20.50
2022-07-26T02:45:41.740Z,20.40
2022-07-26T02:48:09.802Z,20.30
2022-07-26T02:50:37.809Z,20.30
2022-07-26T02:53:05.990Z,20.00
2022-07-26T02:55:34.267Z,20.10
2022-07-26T02:58:02.201Z,20.10
2022-07-26T03:00:32.400Z,20.00
2022-07-26T03:03:04.052Z,19.90
2022-07-26T03:05:32.173Z,19.90
2022-07-26T03:08:00.429Z,19.90
2022-07-26T03:10:31.987Z,19.80
2022-07-26T03:13:00.108Z,19.80
2022-07-26T03:17:56.572Z,19.70
2022-07-26T03:20:26.410Z,19.70
2022-07-26T03:22:54.709Z,19.70
2022-07-26T03:25:23.857Z,19.70
2022-07-26T03:27:51.860Z,19.60
2022-07-26T03:30:24.822Z,19.60
2022-07-26T03:32:54.844Z,19.60
2022-07-26T03:35:23.027Z,19.60
2022-07-26T03:37:52.468Z,19.50
2022-07-26T03:40:21.244Z,19.50
2022-07-26T03:42:49.566Z,19.50
2022-07-26T03:45:17.608Z,19.50
2022-07-26T03:47:46.430Z,19.40
2022-07-26T03:50:14.456Z,19.40
2022-07-26T03:52:43.338Z,18.70
2022-07-26T03:55:32.089Z,19.40
2022-07-26T03:58:00.625Z,19.30
2022-07-26T04:00:28.821Z,19.10
2022-07-26T04:02:57.039Z,19.30
2022-07-26T04:05:26.236Z,19.30
2022-07-26T04:07:55.880Z,19.30
2022-07-26T04:10:25.656Z,19.20
2022-07-26T04:12:54.018Z,19.20
2022-07-26T04:15:25.230Z,19.20
2022-07-26T04:17:53.331Z,19.20
2022-07-26T04:20:23.455Z,19.20
2022-07-26T04:22:52.167Z,19.10
2022-07-26T04:25:38.698Z,19.10
2022-07-26T04:28:09.314Z,19.20
2022-07-26T04:30:40.748Z,19.00
2022-07-26T04:33:09.651Z,19.00
2022-07-26T04:35:37.647Z,19.00
2022-07-26T04:38:06.306Z,19.10
2022-07-26T04:40:40.615Z,19.10
2022-07-26T04:43:15.376Z,19.10
2022-07-26T04:45:45.296Z,19.10
2022-07-26T04:48:13.895Z,19.10
2022-07-26T04:50:42.373Z,19.10
2022-07-26T04:53:13.304Z,19.50
2022-07-26T04:55:43.697Z,19.20
2022-07-26T04:58:11.945Z,19.20
2022-07-26T05:01:08.515Z,19.60
2022-07-26T05:03:31.345Z,19.30
2022-07-26T05:06:09.140Z,19.40
2022-07-26T05:08:43.761Z,19.50
2022-07-26T05:11:28.305Z,19.60
2022-07-26T05:13:56.267Z,19.70
2022-07-26T05:16:24.247Z,19.90
2022-07-26T05:18:52.341Z,20.00
2022-07-26T05:21:20.467Z,20.10
2022-07-26T05:23:48.508Z,20.10
2022-07-26T05:26:16.505Z,20.20
2022-07-26T05:28:45.975Z,20.20
2022-07-26T05:31:14.054Z,20.30
2022-07-26T05:33:42.306Z,20.30
2022-07-26T05:36:10.491Z,20.60
2022-07-26T05:38:38.818Z,20.30
2022-07-26T05:41:07.218Z,20.40
2022-07-26T05:43:40.670Z,20.30
2022-07-26T05:46:12.325Z,20.50
2022-07-26T05:48:40.641Z,20.20
2022-07-26T05:51:09.148Z,20.20
2022-07-26T05:53:37.517Z,20.20
2022-07-26T05:56:06.275Z,20.30
2022-07-26T05:58:34.452Z,20.20
2022-07-26T06:01:02.351Z,20.20
2022-07-26T06:03:32.529Z,20.30
2022-07-26T06:06:00.517Z,20.10
2022-07-26T06:08:28.555Z,20.50
2022-07-26T06:10:56.715Z,20.60
2022-07-26T06:13:24.836Z,20.60
2022-07-26T06:15:53.154Z,20.50
2022-07-26T06:18:21.201Z,20.70
2022-07-26T06:20:50.944Z,20.70
2022-07-26T06:23:34.742Z,20.80
2022-07-26T06:26:04.345Z,20.70
2022-07-26T06:28:32.653Z,20.90
2022-07-26T06:31:00.675Z,21.00
2022-07-26T06:33:28.657Z,21.20
2022-07-26T06:35:58.101Z,21.40
2022-07-26T06:38:26.097Z,21.30
2022-07-26T06:40:54.219Z,21.10
2022-07-26T06:43:22.584Z,21.20
2022-07-26T06:45:50.895Z,21.30
2022-07-26T06:48:18.980Z,21.40
2022-07-26T06:50:46.994Z,21.40
2022-07-26T06:53:16.288Z,21.50
2022-07-26T06:55:44.585Z,21.60
2022-07-26T06:58:13.987Z,21.60
2022-07-26T07:00:42.431Z,21.60
2022-07-26T07:03:10.770Z,21.50
2022-07-26T07:05:38.804Z,21.50
2022-07-26T07:08:07.953Z,21.60
2022-07-26T07:10:40.688Z,21.60
2022-07-26T07:13:10.051Z,21.70
2022-07-26T07:15:39.978Z,21.60
2022-07-26T07:18:15.384Z,21.70
2022-07-26T07:20:49.530Z,21.70
2022-07-26T07:23:18.382Z,21.70
2022-07-26T07:25:51.937Z,22.70
2022-07-26T07:28:20.056Z,22.00
2022-07-26T07:30:48.623Z,21.90
2022-07-26T07:33:22.393Z,22.10
2022-07-26T07:35:59.469Z,22.20
2022-07-26T07:38:28.181Z,22.20
2022-07-26T07:41:00.689Z,22.40
2022-07-26T07:43:28.712Z,22.20
2022-07-26T07:45:57.133Z,22.50
2022-07-26T07:48:25.523Z,22.90
2022-07-26T07:50:53.476Z,22.50
2022-07-26T07:53:31.716Z,22.70
2022-07-26T07:56:01.437Z,22.50
2022-07-26T07:58:29.511Z,22.80
2022-07-26T08:00:57.564Z,22.80
2022-07-26T08:03:38.564Z,22.50
2022-07-26T08:06:11.509Z,22.50
2022-07-26T08:08:39.971Z,23.00
2022-07-26T08:11:09.712Z,23.10
2022-07-26T08:13:45.815Z,23.20
2022-07-26T08:16:16.113Z,23.40
2022-07-26T08:18:57.021Z,23.50
2022-07-26T08:21:29.006Z,23.50
2022-07-26T08:23:58.140Z,23.80
2022-07-26T08:26:31.169Z,23.80
2022-07-26T08:29:06.742Z,23.80
2022-07-26T08:31:35.625Z,24.00
2022-07-26T08:34:06.018Z,24.30
2022-07-26T08:36:41.938Z,24.70
2022-07-26T08:39:20.561Z,24.90
2022-07-26T08:41:50.756Z,24.80
2022-07-26T08:44:19.381Z,24.80
2022-07-26T08:46:48.373Z,24.70
2022-07-26T08:49:16.415Z,24.90
2022-07-26T08:51:45.325Z,25.10
2022-07-26T08:54:16.595Z,25.20
2022-07-26T08:56:53.128Z,24.90
2022-07-26T08:59:23.265Z,24.90
2022-07-26T09:01:58.498Z,24.90
2022-07-26T09:04:32.145Z,25.20
2022-07-26T09:07:05.244Z,25.20
2022-07-26T09:09:34.301Z,25.30
2022-07-26T09:12:17.348Z,25.60
2022-07-26T09:14:47.416Z,25.70
2022-07-26T09:17:17.079Z,25.50
2022-07-26T09:19:45.221Z,25.80
2022-07-26T09:22:16.063Z,25.90
2022-07-26T09:24:48.945Z,25.80
2022-07-26T09:27:20.150Z,25.90
2022-07-26T09:29:50.226Z,25.80
2022-07-26T09:32:20.997Z,25.80
2022-07-26T09:34:54.345Z,25.90
2022-07-26T09:37:36.149Z,26.10
2022-07-26T09:40:06.648Z,26.00
2022-07-26T09:42:37.685Z,25.90
2022-07-26T09:45:16.963Z,25.80
2022-07-26T09:47:45.722Z,25.80
2022-07-26T09:50:16.378Z,25.80
2022-07-26T09:52:59.846Z,25.80
2022-07-26T09:55:36.427Z,25.80
2022-07-26T09:58:13.988Z,25.60
2022-07-26T10:00:42.841Z,25.60
2022-07-26T10:03:11.701Z,25.30
2022-07-26T10:05:40.607Z,24.90
2022-07-26T10:08:09.218Z,25.10
2022-07-26T10:10:41.890Z,25.20
2022-07-26T10:13:12.386Z,25.20
2022-07-26T10:15:44.234Z,25.30
2022-07-26T10:18:50.545Z,25.50
2022-07-26T10:21:21.176Z,25.80
2022-07-26T10:23:51.017Z,26.10
2022-07-26T10:26:38.716Z,25.90
2022-07-26T10:29:26.636Z,25.90
2022-07-26T10:32:17.532Z,25.50
2022-07-26T10:34:46.361Z,25.60
2022-07-26T10:37:24.274Z,26.00
2022-07-26T10:40:22.647Z,26.10
2022-07-26T10:42:50.733Z,26.40
2022-07-26T10:45:22.818Z,26.70
2022-07-26T10:48:12.382Z,26.70
2022-07-26T10:50:40.789Z,26.70
2022-07-26T10:53:10.268Z,26.50
2022-07-26T10:55:57.452Z,26.50
2022-07-26T10:58:26.679Z,26.70
2022-07-26T11:01:01.435Z,26.60
2022-07-26T11:03:39.659Z,26.60
2022-07-26T11:06:16.122Z,26.40
2022-07-26T11:08:48.348Z,26.20
2022-07-26T11:11:29.842Z,26.20
2022-07-26T11:14:07.541Z,25.90
2022-07-26T11:16:42.208Z,25.90
2022-07-26T11:19:17.748Z,26.20
2022-07-26T11:21:47.075Z,25.90
2022-07-26T11:24:15.565Z,26.10
2022-07-26T11:26:44.465Z,26.60
2022-07-26T11:29:17.369Z,26.90
2022-07-26T11:31:57.972Z,27.40
2022-07-26T11:34:33.600Z,27.60
2022-07-26T11:37:03.449Z,27.40
2022-07-26T11:39:33.706Z,27.30
2022-07-26T11:42:04.355Z,27.20
2022-07-26T11:44:32.713Z,27.20
2022-07-26T11:47:11.156Z,27.30
2022-07-26T11:52:30.550Z,27.90
2022-07-26T11:54:58.559Z,28.10
2022-07-26T11:57:31.259Z,28.20
2022-07-26T12:00:01.028Z,27.70
2022-07-26T12:02:31.340Z,27.60
2022-07-26T12:05:14.883Z,27.40
2022-07-26T12:07:57.800Z,27.40
2022-07-26T12:10:25.620Z,27.50
2022-07-26T12:13:08.548Z,28.10
2022-07-26T12:15:46.040Z,28.40
2022-07-26T12:18:23.488Z,28.70
2022-07-26T12:21:05.455Z,28.40
2022-07-26T12:23:44.686Z,28.30
2022-07-26T12:26:23.743Z,27.60
2022-07-26T12:28:51.736Z,27.80
2022-07-26T12:31:27.181Z,27.60
2022-07-26T12:33:57.157Z,27.30
2022-07-26T12:36:28.222Z,27.30
2022-07-26T12:38:57.856Z,27.20
2022-07-26T12:41:36.645Z,27.10
2022-07-26T12:44:06.012Z,26.90
2022-07-26T12:46:34.701Z,26.70
2022-07-26T12:49:05.470Z,26.30
2022-07-26T12:51:33.588Z,26.20
2022-07-26T12:54:01.648Z,26.00
2022-07-26T12:56:29.603Z,26.10
2022-07-26T12:59:01.022Z,26.00
2022-07-26T13:01:29.567Z,26.20
2022-07-26T13:03:57.709Z,26.30
2022-07-26T13:06:27.164Z,26.40
2022-07-26T13:08:56.351Z,26.40
2022-07-26T13:11:24.896Z,26.50
2022-07-26T13:13:52.964Z,26.60
2022-07-26T13:16:20.993Z,26.90
2022-07-26T13:18:48.982Z,27.00
2022-07-26T13:21:16.990Z,26.90
2022-07-26T13:23:46.500Z,26.90
2022-07-26T13:26:14.447Z,27.20
2022-07-26T13:28:42.621Z,27.20
2022-07-26T13:31:11.598Z,27.50
2022-07-26T13:33:39.608Z,27.70
2022-07-26T13:36:07.813Z,28.70
2022-07-26T13:38:35.852Z,28.50
2022-07-26T13:41:05.345Z,29.20
2022-07-26T13:43:33.334Z,29.20
2022-07-26T13:46:01.274Z,29.70
2022-07-26T13:48:29.583Z,29.20
2022-07-26T13:50:58.019Z,29.10
2022-07-26T13:53:26.208Z,28.90
2022-07-26T13:55:54.414Z,28.60
2022-07-26T13:58:23.716Z,28.20
2022-07-26T14:00:51.728Z,27.70
2022-07-26T14:03:19.902Z,27.70
2022-07-26T14:05:48.038Z,27.70
2022-07-26T14:08:16.155Z,27.50
2022-07-26T14:10:44.151Z,27.80
2022-07-26T14:13:12.095Z,28.20
2022-07-26T14:15:41.410Z,29.10
2022-07-26T14:18:09.341Z,29.40
2022-07-26T14:20:37.713Z,29.50
2022-07-26T14:23:05.635Z,29.40
2022-07-26T14:25:33.612Z,29.30
2022-07-26T14:28:01.583Z,29.30
2022-07-26T14:30:29.610Z,29.50
2022-07-26T14:32:58.942Z,29.50
2022-07-26T14:35:26.999Z,29.50
2022-07-26T14:37:54.948Z,29.20
2022-07-26T14:40:23.278Z,29.30
2022-07-26T14:42:51.315Z,29.30
2022-07-26T14:45:19.306Z,30.10
2022-07-26T14:47:47.385Z,31.50
2022-07-26T14:50:17.119Z,32.10
2022-07-26T14:52:47.737Z,31.70
2022-07-26T14:55:20.366Z,31.40
2022-07-26T14:57:52.526Z,31.10
2022-07-26T15:00:20.529Z,30.80
2022-07-26T15:02:49.892Z,30.30
2022-07-26T15:05:19.668Z,30.00
2022-07-26T15:07:48.032Z,29.50
2022-07-26T15:10:16.789Z,29.10
2022-07-26T15:12:45.143Z,28.90
2022-07-26T15:15:13.189Z,28.70
2022-07-26T15:17:41.188Z,28.70
2022-07-26T15:20:09.721Z,28.30
2022-07-26T15:22:39.065Z,28.20
2022-07-26T15:25:07.976Z,28.00
2022-07-26T15:27:36.012Z,28.00
2022-07-26T15:30:07.085Z,27.80
2022-07-26T15:32:38.240Z,27.70
2022-07-26T15:35:07.351Z,27.70
2022-07-26T15:37:44.760Z,27.60
2022-07-26T15:40:13.902Z,27.60
2022-07-26T15:42:44.159Z,27.70
2022-07-26T15:45:13.166Z,27.90
2022-07-26T15:48:05.745Z,28.40
2022-07-26T15:50:30.400Z,28.90
2022-07-26T15:52:59.674Z,29.80
2022-07-26T15:55:27.624Z,31.40
2022-07-26T15:57:55.627Z,32.50
2022-07-26T16:00:23.593Z,33.40
2022-07-26T16:02:52.223Z,33.60
2022-07-26T16:05:20.200Z,34.00
2022-07-26T16:07:48.211Z,33.40
2022-07-26T16:10:17.546Z,32.40
2022-07-26T16:12:45.504Z,31.40
2022-07-26T16:15:13.887Z,30.50
2022-07-26T16:17:41.920Z,30.40
2022-07-26T16:20:10.392Z,30.00
2022-07-26T16:22:41.312Z,29.70
2022-07-26T16:25:12.698Z,29.20
2022-07-26T16:27:43.892Z,29.10
2022-07-26T16:30:13.254Z,29.00
2022-07-26T16:32:41.418Z,28.80
2022-07-26T16:35:10.500Z,28.70
2022-07-26T16:37:38.494Z,28.50
2022-07-26T16:40:08.279Z,28.30
2022-07-26T16:42:36.393Z,28.30
2022-07-26T16:45:06.366Z,28.20
2022-07-26T16:47:34.280Z,28.10
2022-07-26T16:50:02.326Z,28.50
2022-07-26T16:52:30.275Z,29.50
2022-07-26T16:55:00.156Z,29.90
2022-07-26T16:57:28.112Z,30.00
2022-07-26T16:59:56.045Z,30.10
2022-07-26T17:02:25.329Z,30.30
2022-07-26T17:05:27.126Z,30.00
2022-07-26T17:07:56.941Z,29.60
2022-07-26T17:10:26.922Z,29.40
2022-07-26T17:12:55.217Z,29.20
2022-07-26T17:15:23.207Z,29.40
2022-07-26T17:17:52.597Z,29.60
2022-07-26T17:20:20.508Z,29.70
2022-07-26T17:22:48.454Z,29.90
2022-07-26T17:25:16.383Z,29.90
2022-07-26T17:27:44.321Z,29.80
2022-07-26T17:30:13.426Z,29.50
2022-07-26T17:32:41.456Z,29.00
2022-07-26T17:35:11.010Z,28.60
2022-07-26T17:37:38.922Z,28.50
2022-07-26T17:40:09.808Z,28.40
2022-07-26T17:42:38.029Z,28.20
2022-07-26T17:45:07.366Z,28.10
2022-07-26T17:47:35.368Z,27.80
2022-07-26T17:52:54.902Z,27.30
2022-07-26T17:55:23.302Z,27.20
2022-07-26T17:57:52.530Z,27.20
2022-07-26T18:00:22.674Z,27.00
2022-07-26T18:02:51.101Z,27.00
2022-07-26T18:05:19.958Z,27.10
2022-07-26T18:07:48.180Z,26.90
2022-07-26T18:10:17.786Z,26.80
2022-07-26T18:12:45.898Z,26.70
2022-07-26T18:15:14.226Z,26.50
2022-07-26T18:17:42.218Z,26.50
2022-07-26T18:20:11.701Z,26.40
2022-07-26T18:22:40.598Z,26.30
2022-07-26T18:25:09.347Z,26.30
2022-07-26T18:27:42.087Z,26.10
2022-07-26T18:30:10.027Z,25.90
2022-07-26T18:32:39.867Z,25.80
2022-07-26T18:35:08.441Z,25.70
2022-07-26T18:37:36.765Z,25.60
2022-07-26T18:40:05.892Z,25.50
2022-07-26T18:42:33.863Z,25.40
2022-07-26T18:45:03.564Z,25.30
2022-07-26T18:47:33.901Z,25.40
2022-07-26T18:50:01.839Z,25.10
2022-07-26T18:52:32.460Z,25.00
2022-07-26T18:55:02.344Z,25.00
2022-07-26T18:57:30.876Z,24.90
2022-07-26T18:59:58.787Z,24.80
2022-07-26T19:02:28.241Z,24.70
2022-07-26T19:04:56.220Z,24.60
2022-07-26T19:07:24.162Z,24.50
2022-07-26T19:09:57.872Z,24.40
2022-07-26T19:12:27.143Z,24.30
2022-07-26T19:14:55.799Z,24.20
2022-07-26T19:17:23.774Z,24.10
2022-07-26T19:19:53.221Z,24.00
2022-07-26T19:22:22.784Z,23.90
2022-07-26T19:24:50.859Z,23.90
2022-07-26T19:27:19.308Z,23.80
2022-07-26T19:29:48.764Z,23.70
2022-07-26T19:32:16.726Z,23.60
2022-07-26T19:34:44.674Z,23.50
2022-07-26T19:37:19.646Z,22.90
2022-07-26T19:39:47.888Z,23.40
2022-07-26T19:42:16.038Z,23.30
2022-07-26T19:44:44.028Z,23.30
2022-07-26T19:47:12.161Z,23.20
2022-07-26T19:49:40.180Z,23.10
2022-07-26T19:52:11.481Z,23.10
2022-07-26T19:54:44.221Z,23.10
2022-07-26T19:57:12.410Z,22.90
2022-07-26T19:59:40.538Z,22.90
2022-07-26T20:02:09.048Z,22.80
2022-07-26T20:04:37.213Z,22.70
2022-07-26T20:07:05.625Z,22.70
2022-07-26T20:09:33.671Z,22.60
2022-07-26T20:12:03.200Z,22.60
2022-07-26T20:14:31.272Z,22.50
2022-07-26T20:16:59.341Z,22.50
2022-07-26T20:19:28.105Z,22.50
2022-07-26T20:21:56.297Z,22.50
2022-07-26T20:24:24.347Z,22.40
2022-07-26T20:26:52.396Z,22.40
2022-07-26T20:29:21.873Z,22.40
2022-07-26T20:31:49.781Z,22.30
2022-07-26T20:34:17.701Z,22.30
2022-07-26T20:36:45.601Z,22.20
2022-07-26T20:39:14.064Z,22.20
2022-07-26T20:41:42.678Z,22.10
2022-07-26T20:44:10.690Z,22.10
2022-07-26T20:46:43.404Z,22.00
2022-07-26T20:49:11.742Z,21.90
2022-07-26T20:51:40.085Z,21.90
2022-07-26T20:54:08.557Z,21.80
2022-07-26T20:56:36.748Z,21.90
2022-07-26T20:59:05.004Z,21.80
2022-07-26T21:01:33.980Z,21.70
2022-07-26T21:04:03.791Z,21.60
2022-07-26T21:06:33.082Z,21.60
2022-07-26T21:09:09.122Z,21.60
2022-07-26T21:11:39.179Z,21.60
2022-07-26T21:14:07.237Z,21.40
2022-07-26T21:16:35.323Z,21.40
2022-07-26T21:19:05.380Z,21.30
2022-07-26T21:21:37.169Z,21.20
2022-07-26T21:24:06.257Z,21.20
2022-07-26T21:26:34.294Z,21.10
2022-07-26T21:29:02.408Z,21.10
2022-07-26T21:31:30.502Z,21.00
2022-07-26T21:33:58.841Z,21.00
2022-07-26T21:36:28.435Z,21.00
2022-07-26T21:38:56.377Z,21.00
2022-07-26T21:41:24.373Z,21.00
2022-07-26T21:43:52.311Z,21.00
2022-07-26T21:46:20.509Z,21.00
2022-07-26T21:48:48.566Z,21.00
2022-07-26T21:51:16.912Z,21.00
2022-07-26T21:53:46.282Z,21.10
2022-07-26T21:56:14.464Z,20.80
2022-07-26T21:58:45.109Z,21.00
2022-07-26T22:01:15.306Z,21.10
2022-07-26T22:03:43.927Z,21.00
2022-07-26T22:06:12.989Z,21.00
2022-07-26T22:08:41.064Z,21.00
2022-07-26T22:11:10.729Z,20.90
2022-07-26T22:13:38.890Z,20.90
2022-07-26T22:16:07.677Z,20.60
2022-07-26T22:18:35.703Z,20.80
2022-07-26T22:21:03.903Z,20.80
2022-07-26T22:23:31.894Z,20.70
2022-07-26T22:26:01.836Z,20.70
2022-07-26T22:28:32.452Z,20.60
2022-07-26T22:31:00.754Z,20.60
2022-07-26T22:33:28.691Z,20.50
2022-07-26T22:35:56.883Z,20.50
2022-07-26T22:38:24.797Z,20.40
2022-07-26T22:40:52.880Z,20.40
2022-07-26T22:43:21.430Z,20.40
2022-07-26T22:45:50.743Z,20.30
2022-07-26T22:48:18.744Z,20.30
2022-07-26T22:50:46.882Z,20.20
2022-07-26T22:53:14.853Z,20.20
2022-07-26T22:55:42.878Z,20.20
2022-07-26T22:58:10.880Z,20.20
2022-07-26T23:00:39.123Z,20.10
2022-07-26T23:03:17.642Z,20.10
2022-07-26T23:05:49.644Z,20.10
2022-07-26T23:11:06.766Z,20.10
2022-07-26T23:13:35.379Z,20.00
2022-07-26T23:16:03.873Z,20.20
2022-07-26T23:18:34.896Z,19.90
2022-07-26T23:21:03.844Z,19.90
2022-07-26T23:23:32.388Z,19.90
2022-07-26T23:26:01.082Z,19.80
2022-07-26T23:28:36.904Z,19.80
2022-07-26T23:31:10.748Z,19.80
2022-07-26T23:33:51.414Z,19.70
2022-07-26T23:36:22.940Z,19.70
2022-07-26T23:38:50.991Z,19.70
2022-07-26T23:41:19.883Z,19.70
2022-07-26T23:43:47.795Z,19.70
2022-07-26T23:46:16.017Z,20.00
2022-07-26T23:48:45.499Z,19.70
2022-07-26T23:51:14.194Z,19.70
2022-07-26T23:53:42.291Z,19.70
2022-07-26T23:56:10.241Z,19.60
2022-07-26T23:58:38.534Z,19.70
